createdAt,value
2019-05-11T00:00:28.790Z,101034.43
2019-05-11T00:01:29.546Z,101035.36
2019-05-11T00:02:30.222Z,101037.09
2019-05-11T00:03:31.085Z,101038.30
2019-05-11T00:04:31.694Z,101040.00
2019-05-11T00:05:32.249Z,101041.77
2019-05-11T00:06:32.858Z,101043.75
2019-05-11T00:07:33.528Z,101045.94
2019-05-11T00:08:34.405Z,101048.14
2019-05-11T00:09:35.127Z,101050.21
2019-05-11T00:10:35.815Z,101053.00
2019-05-11T00:11:36.516Z,101054.85
2019-05-11T00:12:37.414Z,101057.22
2019-05-11T00:13:38.111Z,101058.95
2019-05-11T00:14:38.713Z,101060.73
2019-05-11T00:15:39.590Z,101061.82
2019-05-11T00:16:40.352Z,101062.55
2019-05-11T00:17:40.393Z,101063.55
2019-05-11T00:18:41.200Z,101064.31
2019-05-11T00:19:41.873Z,101064.70
2019-05-11T00:20:41.905Z,101065.13
2019-05-11T00:21:42.622Z,101065.20
2019-05-11T00:22:42.601Z,101064.78
2019-05-11T00:23:43.174Z,101064.58
2019-05-11T00:24:43.945Z,101064.16
2019-05-11T00:25:44.465Z,101063.91
2019-05-11T00:26:45.074Z,101062.89
2019-05-11T00:27:45.712Z,101062.27
2019-05-11T00:28:46.333Z,101061.53
2019-05-11T00:29:47.027Z,101060.74
2019-05-11T00:30:47.676Z,101060.19
2019-05-11T00:31:47.913Z,101058.92
2019-05-11T00:31:56.435Z,101038.21
2019-05-11T00:32:57.999Z,101037.95
2019-05-11T00:33:58.631Z,101038.13
2019-05-11T00:34:59.301Z,101038.72
2019-05-11T00:35:58.971Z,101039.73
2019-05-11T00:37:00.088Z,101040.61
2019-05-11T00:38:00.111Z,101041.13
2019-05-11T00:39:00.901Z,101041.75
2019-05-11T00:40:13.957Z,101042.29
2019-05-11T00:41:01.596Z,101042.97
2019-05-11T00:42:03.282Z,101043.17
2019-05-11T00:43:04.162Z,101042.92
2019-05-11T00:44:04.734Z,101042.58
2019-05-11T00:45:05.494Z,101041.73
2019-05-11T00:46:06.193Z,101041.14
2019-05-11T00:47:06.895Z,101039.80
2019-05-11T00:48:07.642Z,101039.00
2019-05-11T00:49:08.341Z,101037.91
2019-05-11T00:50:08.410Z,101037.39
2019-05-11T00:51:09.068Z,101036.27
2019-05-11T00:52:09.668Z,101035.33
2019-05-11T00:53:10.482Z,101034.41
2019-05-11T00:54:10.103Z,101033.13
2019-05-11T00:55:11.745Z,101033.02
2019-05-11T00:56:12.479Z,101032.51
2019-05-11T00:57:13.147Z,101032.00
2019-05-11T00:58:13.920Z,101031.11
2019-05-11T00:59:21.755Z,101030.83
2019-05-11T01:00:14.410Z,101030.06
2019-05-11T01:01:16.073Z,101028.96
2019-05-11T01:02:16.409Z,101028.00
2019-05-11T01:03:17.072Z,101026.91
2019-05-11T01:04:17.838Z,101026.22
2019-05-11T01:05:18.475Z,101024.59
2019-05-11T01:06:19.091Z,101022.64
2019-05-11T01:07:19.833Z,101021.13
2019-05-11T01:08:20.486Z,101018.98
2019-05-11T01:09:21.130Z,101016.27
2019-05-11T01:10:25.461Z,101013.48
2019-05-11T01:11:21.423Z,101010.92
2019-05-11T01:12:22.995Z,101008.52
2019-05-11T01:13:23.642Z,101006.06
2019-05-11T01:14:24.293Z,101003.45
2019-05-11T01:15:24.887Z,101001.73
2019-05-11T01:16:25.600Z,100999.78
2019-05-11T01:17:26.252Z,100998.68
2019-05-11T01:18:26.954Z,100997.63
2019-05-11T01:19:27.710Z,100996.28
2019-05-11T01:20:28.432Z,100995.52
2019-05-11T01:20:37.009Z,100989.05
2019-05-11T01:21:38.600Z,100988.29
2019-05-11T01:22:39.228Z,100988.45
2019-05-11T01:23:40.006Z,100988.38
2019-05-11T01:24:40.809Z,100988.48
2019-05-11T01:25:41.598Z,100988.66
2019-05-11T01:26:42.403Z,100988.07
2019-05-11T01:27:43.222Z,100987.14
2019-05-11T01:28:43.875Z,100986.72
2019-05-11T01:29:44.649Z,100985.33
2019-05-11T01:30:45.330Z,100984.09
2019-05-11T01:31:46.003Z,100982.78
2019-05-11T01:32:46.813Z,100981.14
2019-05-11T01:33:47.483Z,100979.23
2019-05-11T01:34:48.125Z,100977.16
2019-05-11T01:35:51.106Z,100975.59
2019-05-11T01:36:48.169Z,100974.41
2019-05-11T01:37:49.766Z,100973.61
2019-05-11T01:38:50.532Z,100972.27
2019-05-11T01:39:51.168Z,100971.00
2019-05-11T01:40:58.583Z,100970.10
2019-05-11T01:41:50.995Z,100968.59
2019-05-11T01:42:52.566Z,100967.61
2019-05-11T01:43:53.083Z,100966.85
2019-05-11T01:44:53.715Z,100965.38
2019-05-11T01:45:54.069Z,100964.70
2019-05-11T01:46:53.826Z,100963.94
2019-05-11T01:47:54.665Z,100963.27
2019-05-11T01:48:56.374Z,100962.42
2019-05-11T01:49:57.097Z,100961.49
2019-05-11T01:50:57.947Z,100960.81
2019-05-11T01:51:57.587Z,100959.89
2019-05-11T01:52:59.352Z,100958.87
2019-05-11T01:54:00.079Z,100957.86
2019-05-11T01:55:00.980Z,100956.85
2019-05-11T01:56:01.679Z,100955.67
2019-05-11T01:57:02.390Z,100954.15
2019-05-11T01:58:03.127Z,100952.75
2019-05-11T01:59:03.849Z,100950.98
2019-05-11T02:00:04.615Z,100948.53
2019-05-11T02:01:05.319Z,100946.84
2019-05-11T02:02:06.096Z,100945.16
2019-05-11T02:03:06.801Z,100942.70
2019-05-11T02:04:07.567Z,100940.63
2019-05-11T02:05:08.310Z,100939.03
2019-05-11T02:06:08.986Z,100937.17
2019-05-11T02:07:09.757Z,100935.61
2019-05-11T02:08:09.909Z,100933.88
2019-05-11T02:08:19.083Z,100911.86
2019-05-11T02:09:19.762Z,100911.44
2019-05-11T02:10:21.424Z,100911.44
2019-05-11T02:11:22.113Z,100911.44
2019-05-11T02:12:22.959Z,100911.35
2019-05-11T02:13:23.797Z,100910.77
2019-05-11T02:14:24.447Z,100910.20
2019-05-11T02:15:25.220Z,100910.30
2019-05-11T02:16:25.958Z,100910.16
2019-05-11T02:17:26.708Z,100909.91
2019-05-11T02:18:27.423Z,100909.32
2019-05-11T02:19:27.553Z,100909.07
2019-05-11T02:20:28.337Z,100908.34
2019-05-11T02:21:28.001Z,100907.76
2019-05-11T02:22:29.679Z,100907.17
2019-05-11T02:23:30.407Z,100906.70
2019-05-11T02:24:31.011Z,100906.28
2019-05-11T02:25:32.023Z,100905.77
2019-05-11T02:26:32.892Z,100905.64
2019-05-11T02:27:32.922Z,100904.84
2019-05-11T02:28:33.495Z,100904.79
2019-05-11T02:29:34.064Z,100903.91
2019-05-11T02:30:34.833Z,100903.61
2019-05-11T02:31:35.521Z,100903.14
2019-05-11T02:32:35.586Z,100902.84
2019-05-11T02:33:36.238Z,100902.55
2019-05-11T02:34:36.945Z,100901.86
2019-05-11T02:35:37.649Z,100901.64
2019-05-11T02:36:37.234Z,100901.01
2019-05-11T02:37:39.201Z,100900.20
2019-05-11T02:38:39.998Z,100899.23
2019-05-11T02:39:40.675Z,100898.52
2019-05-11T02:40:41.446Z,100897.45
2019-05-11T02:41:41.247Z,100896.56
2019-05-11T02:42:42.871Z,100895.84
2019-05-11T02:43:43.729Z,100894.58
2019-05-11T02:44:44.672Z,100893.60
2019-05-11T02:45:45.335Z,100892.77
2019-05-11T02:46:45.468Z,100891.79
2019-05-11T02:47:46.116Z,100891.31
2019-05-11T02:48:46.729Z,100889.89
2019-05-11T02:49:47.474Z,100888.58
2019-05-11T02:50:48.148Z,100887.73
2019-05-11T02:51:48.850Z,100886.25
2019-05-11T02:52:49.570Z,100885.50
2019-05-11T02:53:50.191Z,100884.02
2019-05-11T02:54:49.877Z,100883.67
2019-05-11T02:54:58.428Z,100873.64
2019-05-11T02:55:59.007Z,100873.55
2019-05-11T02:57:00.699Z,100873.22
2019-05-11T02:58:01.322Z,100872.71
2019-05-11T02:59:02.046Z,100872.71
2019-05-11T03:00:02.670Z,100872.45
2019-05-11T03:01:03.522Z,100872.20
2019-05-11T03:02:04.384Z,100871.58
2019-05-11T03:03:05.119Z,100870.81
2019-05-11T03:04:05.793Z,100870.14
2019-05-11T03:05:06.422Z,100869.26
2019-05-11T03:06:07.071Z,100867.91
2019-05-11T03:07:07.706Z,100867.11
2019-05-11T03:08:08.377Z,100866.06
2019-05-11T03:09:08.158Z,100865.21
2019-05-11T03:10:09.961Z,100863.83
2019-05-11T03:11:10.582Z,100863.15
2019-05-11T03:12:11.300Z,100862.10
2019-05-11T03:13:11.868Z,100860.58
2019-05-11T03:14:12.721Z,100859.44
2019-05-11T03:15:13.659Z,100858.90
2019-05-11T03:16:14.677Z,100858.27
2019-05-11T03:17:15.345Z,100857.59
2019-05-11T03:18:16.213Z,100855.82
2019-05-11T03:19:16.969Z,100854.77
2019-05-11T03:20:17.688Z,100854.34
2019-05-11T03:21:18.553Z,100853.17
2019-05-11T03:22:19.233Z,100852.41
2019-05-11T03:23:19.506Z,100851.56
2019-05-11T03:24:23.884Z,100850.72
2019-05-11T03:25:19.989Z,100850.43
2019-05-11T03:26:21.834Z,100849.92
2019-05-11T03:27:22.664Z,100849.92
2019-05-11T03:28:23.390Z,100849.54
2019-05-11T03:29:24.093Z,100849.63
2019-05-11T03:30:24.693Z,100849.55
2019-05-11T03:31:25.389Z,100849.29
2019-05-11T03:32:25.059Z,100849.58
2019-05-11T03:33:26.697Z,100848.91
2019-05-11T03:34:26.324Z,100848.27
2019-05-11T03:35:28.014Z,100847.77
2019-05-11T03:36:28.881Z,100847.55
2019-05-11T03:37:29.535Z,100847.25
2019-05-11T03:38:30.339Z,100846.66
2019-05-11T03:39:29.994Z,100846.53
2019-05-11T03:40:31.664Z,100845.81
2019-05-11T03:41:32.402Z,100845.42
2019-05-11T03:42:33.156Z,100844.84
2019-05-11T03:42:42.229Z,100830.20
2019-05-11T03:43:43.996Z,100829.95
2019-05-11T03:44:44.491Z,100829.79
2019-05-11T03:45:45.123Z,100830.13
2019-05-11T03:46:45.819Z,100830.13
2019-05-11T03:47:46.561Z,100829.66
2019-05-11T03:48:46.564Z,100828.73
2019-05-11T03:49:47.387Z,100828.31
2019-05-11T03:50:48.014Z,100827.84
2019-05-11T03:51:48.633Z,100827.51
2019-05-11T03:52:49.391Z,100827.37
2019-05-11T03:53:50.157Z,100827.04
2019-05-11T03:54:50.805Z,100826.73
2019-05-11T03:55:51.382Z,100826.91
2019-05-11T03:56:52.016Z,100826.44
2019-05-11T03:57:52.825Z,100826.36
2019-05-11T03:58:53.590Z,100825.94
2019-05-11T03:59:54.328Z,100825.72
2019-05-11T04:00:54.985Z,100825.72
2019-05-11T04:01:55.689Z,100825.38
2019-05-11T04:02:56.417Z,100825.59
2019-05-11T04:03:57.172Z,100824.92
2019-05-11T04:04:57.790Z,100825.42
2019-05-11T04:05:58.719Z,100825.34
2019-05-11T04:06:59.431Z,100825.05
2019-05-11T04:08:00.078Z,100824.55
2019-05-11T04:09:00.962Z,100824.71
2019-05-11T04:10:01.729Z,100824.09
2019-05-11T04:11:02.584Z,100823.83
2019-05-11T04:12:03.284Z,100824.17
2019-05-11T04:13:04.025Z,100823.88
2019-05-11T04:14:04.668Z,100823.45
2019-05-11T04:15:03.854Z,100823.03
2019-05-11T04:16:05.560Z,100823.00
2019-05-11T04:17:06.368Z,100823.16
2019-05-11T04:18:07.063Z,100822.48
2019-05-11T04:19:07.821Z,100822.06
2019-05-11T04:20:08.524Z,100821.05
2019-05-11T04:21:09.296Z,100820.55
2019-05-11T04:22:09.047Z,100820.26
2019-05-11T04:23:10.725Z,100819.28
2019-05-11T04:24:11.620Z,100818.78
2019-05-11T04:25:12.368Z,100818.48
2019-05-11T04:26:13.004Z,100817.92
2019-05-11T04:27:13.718Z,100817.77
2019-05-11T04:27:22.267Z,100818.80
2019-05-11T04:28:23.301Z,100818.46
2019-05-11T04:29:23.547Z,100817.91
2019-05-11T04:30:24.326Z,100817.56
2019-05-11T04:31:24.134Z,100817.66
2019-05-11T04:32:25.820Z,100817.41
2019-05-11T04:33:26.484Z,100817.15
2019-05-11T04:34:27.125Z,100816.34
2019-05-11T04:35:27.890Z,100816.59
2019-05-11T04:36:28.575Z,100816.77
2019-05-11T04:37:28.249Z,100816.72
2019-05-11T04:38:30.043Z,100816.21
2019-05-11T04:39:30.694Z,100816.26
2019-05-11T04:40:31.507Z,100816.42
2019-05-11T04:41:32.229Z,100816.00
2019-05-11T04:42:32.950Z,100815.75
2019-05-11T04:43:33.710Z,100815.21
2019-05-11T04:44:34.362Z,100814.78
2019-05-11T04:45:35.062Z,100814.36
2019-05-11T04:46:35.642Z,100814.16
2019-05-11T04:47:36.244Z,100813.91
2019-05-11T04:48:35.823Z,100814.71
2019-05-11T04:49:37.345Z,100814.71
2019-05-11T04:50:37.968Z,100815.12
2019-05-11T04:51:38.568Z,100815.55
2019-05-11T04:52:39.248Z,100815.89
2019-05-11T04:53:39.912Z,100816.56
2019-05-11T04:54:40.399Z,100816.65
2019-05-11T04:55:40.994Z,100817.16
2019-05-11T04:56:41.766Z,100817.23
2019-05-11T04:57:42.397Z,100818.03
2019-05-11T04:58:43.222Z,100818.28
2019-05-11T04:59:43.928Z,100818.91
2019-05-11T05:00:44.774Z,100819.42
2019-05-11T05:01:45.538Z,100819.80
2019-05-11T05:02:46.145Z,100820.56
2019-05-11T05:03:47.341Z,100821.10
2019-05-11T05:04:46.786Z,100822.12
2019-05-11T05:05:47.914Z,100822.75
2019-05-11T05:06:58.861Z,100823.42
2019-05-11T05:07:50.381Z,100824.30
2019-05-11T05:08:48.740Z,100824.84
2019-05-11T05:09:50.437Z,100825.52
2019-05-11T05:10:52.418Z,100825.89
2019-05-11T05:11:50.906Z,100826.41
2019-05-11T05:12:53.384Z,100826.99
2019-05-11T05:13:53.649Z,100827.79
2019-05-11T05:14:53.049Z,100828.38
2019-05-11T05:15:54.826Z,100829.22
2019-05-11T05:16:55.517Z,100829.48
2019-05-11T05:17:55.553Z,100829.90
2019-05-11T05:18:56.359Z,100830.83
2019-05-11T05:19:04.970Z,100839.41
2019-05-11T05:20:05.704Z,100839.36
2019-05-11T05:21:07.665Z,100839.75
2019-05-11T05:22:08.491Z,100839.83
2019-05-11T05:23:08.690Z,100839.49
2019-05-11T05:24:09.346Z,100839.91
2019-05-11T05:25:10.003Z,100840.00
2019-05-11T05:26:10.797Z,100840.30
2019-05-11T05:27:11.458Z,100840.63
2019-05-11T05:28:12.239Z,100841.10
2019-05-11T05:29:13.036Z,100841.61
2019-05-11T05:30:13.884Z,100841.66
2019-05-11T05:31:13.710Z,100842.33
2019-05-11T05:32:14.409Z,100842.16
2019-05-11T05:33:16.279Z,100842.55
2019-05-11T05:34:17.191Z,100842.33
2019-05-11T05:35:17.787Z,100841.88
2019-05-11T05:36:18.496Z,100841.03
2019-05-11T05:37:18.092Z,100840.61
2019-05-11T05:38:19.776Z,100840.27
2019-05-11T05:39:20.458Z,100839.51
2019-05-11T05:40:20.065Z,100838.50
2019-05-11T05:41:21.712Z,100837.44
2019-05-11T05:42:22.584Z,100837.09
2019-05-11T05:43:27.790Z,100836.76
2019-05-11T05:44:22.846Z,100836.76
2019-05-11T05:45:24.606Z,100836.59
2019-05-11T05:46:25.253Z,100836.98
2019-05-11T05:47:25.833Z,100837.23
2019-05-11T05:48:26.484Z,100836.89
2019-05-11T05:49:27.149Z,100836.72
2019-05-11T05:50:27.885Z,100836.25
2019-05-11T05:51:28.662Z,100835.75
2019-05-11T05:52:29.407Z,100834.86
2019-05-11T05:53:30.162Z,100834.27
2019-05-11T05:54:30.885Z,100833.94
2019-05-11T05:55:31.655Z,100833.77
2019-05-11T05:56:32.369Z,100833.42
2019-05-11T05:57:32.480Z,100833.89
2019-05-11T05:58:33.105Z,100834.06
2019-05-11T05:59:33.827Z,100834.20
2019-05-11T06:00:34.599Z,100834.19
2019-05-11T06:01:35.337Z,100834.16
2019-05-11T06:02:36.019Z,100834.03
2019-05-11T06:03:36.767Z,100833.61
2019-05-11T06:04:37.407Z,100833.53
2019-05-11T06:05:38.111Z,100833.49
2019-05-11T06:06:38.957Z,100832.73
2019-05-11T06:06:47.522Z,100830.86
2019-05-11T06:07:48.545Z,100830.11
2019-05-11T06:08:49.169Z,100830.45
2019-05-11T06:09:50.071Z,100830.03
2019-05-11T06:10:50.731Z,100830.20
2019-05-11T06:11:50.942Z,100830.03
2019-05-11T06:12:51.530Z,100829.61
2019-05-11T06:13:52.258Z,100829.98
2019-05-11T06:14:52.964Z,100830.83
2019-05-11T06:15:53.612Z,100831.58
2019-05-11T06:16:54.271Z,100832.29
2019-05-11T06:17:54.885Z,100832.75
2019-05-11T06:18:55.711Z,100834.05
2019-05-11T06:19:56.474Z,100834.34
2019-05-11T06:20:57.096Z,100834.89
2019-05-11T06:21:57.755Z,100835.95
2019-05-11T06:22:58.424Z,100837.16
2019-05-11T06:24:06.037Z,100837.55
2019-05-11T06:24:58.760Z,100837.92
2019-05-11T06:26:00.558Z,100838.50
2019-05-11T06:27:00.194Z,100839.27
2019-05-11T06:28:01.979Z,100839.13
2019-05-11T06:29:02.874Z,100839.34
2019-05-11T06:30:03.632Z,100839.80
2019-05-11T06:31:04.474Z,100839.75
2019-05-11T06:32:05.402Z,100839.88
2019-05-11T06:33:06.369Z,100839.75
2019-05-11T06:34:07.242Z,100839.70
2019-05-11T06:35:08.110Z,100839.73
2019-05-11T06:36:08.974Z,100840.41
2019-05-11T06:37:09.726Z,100840.12
2019-05-11T06:38:10.481Z,100840.58
2019-05-11T06:39:11.387Z,100840.19
2019-05-11T06:40:12.030Z,100840.61
2019-05-11T06:41:12.748Z,100840.73
2019-05-11T06:42:12.563Z,100840.56
2019-05-11T06:43:13.944Z,100840.39
2019-05-11T06:44:14.807Z,100840.45
2019-05-11T06:45:15.386Z,100840.36
2019-05-11T06:46:16.019Z,100840.86
2019-05-11T06:47:16.668Z,100840.41
2019-05-11T06:48:16.719Z,100840.41
2019-05-11T06:49:16.932Z,100840.63
2019-05-11T06:50:17.616Z,100840.83
2019-05-11T06:51:18.244Z,100840.55
2019-05-11T06:52:18.922Z,100840.84
2019-05-11T06:53:19.809Z,100840.97
2019-05-11T06:53:28.349Z,100841.70
2019-05-11T06:54:29.092Z,100841.28
2019-05-11T06:55:30.770Z,100841.37
2019-05-11T06:56:31.416Z,100841.37
2019-05-11T06:57:32.116Z,100841.70
2019-05-11T06:58:32.929Z,100841.28
2019-05-11T06:59:33.674Z,100841.20
2019-05-11T07:00:34.453Z,100841.62
2019-05-11T07:01:35.130Z,100841.28
2019-05-11T07:02:35.761Z,100842.09
2019-05-11T07:03:36.661Z,100842.25
2019-05-11T07:04:37.318Z,100842.17
2019-05-11T07:05:37.900Z,100843.14
2019-05-11T07:06:38.715Z,100844.48
2019-05-11T07:07:47.715Z,100845.16
2019-05-11T07:08:39.085Z,100846.39
2019-05-11T07:09:40.728Z,100847.02
2019-05-11T07:10:41.398Z,100848.50
2019-05-11T07:11:42.238Z,100849.69
2019-05-11T07:12:43.016Z,100850.44
2019-05-11T07:13:43.814Z,100851.59
2019-05-11T07:14:44.637Z,100852.42
2019-05-11T07:15:45.539Z,100853.66
2019-05-11T07:16:46.202Z,100854.75
2019-05-11T07:17:46.960Z,100855.46
2019-05-11T07:18:47.675Z,100856.22
2019-05-11T07:19:48.327Z,100857.66
2019-05-11T07:20:50.787Z,100858.70
2019-05-11T07:21:49.165Z,100859.30
2019-05-11T07:22:50.912Z,100860.01
2019-05-11T07:23:51.774Z,100860.77
2019-05-11T07:24:52.651Z,100861.61
2019-05-11T07:25:52.346Z,100862.55
2019-05-11T07:26:54.010Z,100863.47
2019-05-11T07:27:54.877Z,100864.77
2019-05-11T07:28:55.552Z,100865.53
2019-05-11T07:29:56.362Z,100866.46
2019-05-11T07:30:57.177Z,100867.90
2019-05-11T07:32:04.925Z,100869.25
2019-05-11T07:32:58.130Z,100870.59
2019-05-11T07:33:58.803Z,100871.52
2019-05-11T07:34:59.087Z,100873.04
2019-05-11T07:36:00.864Z,100874.19
2019-05-11T07:37:01.450Z,100875.58
2019-05-11T07:38:02.094Z,100876.08
2019-05-11T07:39:03.064Z,100876.55
2019-05-11T07:40:03.259Z,100877.02
2019-05-11T07:41:04.007Z,100877.58
2019-05-11T07:42:04.801Z,100878.20
2019-05-11T07:42:13.351Z,100884.82
2019-05-11T07:43:14.629Z,100884.99
2019-05-11T07:44:15.380Z,100884.57
2019-05-11T07:45:15.003Z,100884.31
2019-05-11T07:46:18.186Z,100884.22
2019-05-11T07:47:18.487Z,100883.89
2019-05-11T07:48:18.625Z,100884.48
2019-05-11T07:49:17.927Z,100884.94
2019-05-11T07:50:18.324Z,100885.27
2019-05-11T07:51:18.394Z,100885.27
2019-05-11T07:52:18.861Z,100885.33
2019-05-11T07:53:20.625Z,100886.00
2019-05-11T07:54:21.444Z,100885.83
2019-05-11T07:55:22.179Z,100886.59
2019-05-11T07:56:23.033Z,100886.92
2019-05-11T07:57:23.646Z,100887.77
2019-05-11T07:58:24.343Z,100888.19
2019-05-11T07:59:24.959Z,100888.70
2019-05-11T08:00:27.881Z,100889.45
2019-05-11T08:01:25.196Z,100889.62
2019-05-11T08:02:28.506Z,100890.34
2019-05-11T08:03:28.383Z,100891.02
2019-05-11T08:04:28.766Z,100891.36
2019-05-11T08:05:28.486Z,100891.86
2019-05-11T08:06:28.728Z,100892.45
2019-05-11T08:07:29.134Z,100892.88
2019-05-11T08:08:30.824Z,100893.09
2019-05-11T08:09:31.643Z,100893.26
2019-05-11T08:10:32.431Z,100894.06
2019-05-11T08:11:33.205Z,100894.91
2019-05-11T08:12:34.136Z,100895.13
2019-05-11T08:13:35.013Z,100895.92
2019-05-11T08:14:34.762Z,100897.15
2019-05-11T08:15:38.091Z,100897.62
2019-05-11T08:16:35.667Z,100897.75
2019-05-11T08:17:38.096Z,100898.30
2019-05-11T08:18:44.724Z,100898.55
2019-05-11T08:19:38.408Z,100899.36
2019-05-11T08:20:38.645Z,100899.44
2019-05-11T08:21:39.082Z,100900.28
2019-05-11T08:22:39.987Z,100900.79
2019-05-11T08:23:41.707Z,100900.95
2019-05-11T08:24:42.328Z,100901.97
2019-05-11T08:25:43.121Z,100902.65
2019-05-11T08:26:42.711Z,100903.92
2019-05-11T08:27:44.464Z,100905.14
2019-05-11T08:28:45.182Z,100906.02
2019-05-11T08:29:45.988Z,100906.94
2019-05-11T08:30:48.470Z,100908.21
2019-05-11T08:31:45.679Z,100909.14
2019-05-11T08:32:49.364Z,100910.10
2019-05-11T08:33:48.029Z,100911.03
2019-05-11T08:34:49.093Z,100912.05
2019-05-11T08:35:48.325Z,100913.14
2019-05-11T08:36:50.032Z,100914.03
2019-05-11T08:37:50.644Z,100914.33
2019-05-11T08:38:51.437Z,100915.55
2019-05-11T08:39:52.205Z,100916.48
2019-05-11T08:40:52.863Z,100917.88
2019-05-11T08:41:53.667Z,100919.11
2019-05-11T08:42:54.256Z,100920.03
2019-05-11T08:43:54.993Z,100921.34
2019-05-11T08:45:11.720Z,100922.14
2019-05-11T08:45:57.706Z,100923.62
2019-05-11T08:46:58.157Z,100924.77
2019-05-11T08:47:58.002Z,100926.33
2019-05-11T08:48:59.531Z,100927.64
2019-05-11T08:49:58.943Z,100928.49
2019-05-11T08:50:58.862Z,100929.89
2019-05-11T08:51:08.378Z,100952.48
2019-05-11T08:52:08.260Z,100952.48
2019-05-11T08:53:08.849Z,100952.83
2019-05-11T08:54:09.510Z,100952.79
2019-05-11T08:55:11.156Z,100952.86
2019-05-11T08:56:13.322Z,100952.48
2019-05-11T08:57:11.746Z,100952.45
2019-05-11T08:58:13.460Z,100953.20
2019-05-11T08:59:14.280Z,100953.34
2019-05-11T09:00:17.728Z,100953.89
2019-05-11T09:01:14.976Z,100954.31
2019-05-11T09:02:18.580Z,100954.81
2019-05-11T09:03:17.918Z,100955.66
2019-05-11T09:04:18.279Z,100956.63
2019-05-11T09:05:18.758Z,100957.81
2019-05-11T09:06:18.194Z,100958.41
2019-05-11T09:07:19.772Z,100959.08
2019-05-11T09:08:20.496Z,100959.92
2019-05-11T09:09:21.109Z,100960.34
2019-05-11T09:10:21.964Z,100961.14
2019-05-11T09:11:22.776Z,100961.81
2019-05-11T09:12:22.279Z,100963.22
2019-05-11T09:13:23.935Z,100964.48
2019-05-11T09:14:24.905Z,100965.41
2019-05-11T09:15:33.680Z,100966.59
2019-05-11T09:16:25.332Z,100968.20
2019-05-11T09:17:28.844Z,100969.20
2019-05-11T09:18:28.007Z,100970.05
2019-05-11T09:19:28.461Z,100971.63
2019-05-11T09:20:28.637Z,100973.14
2019-05-11T09:21:28.865Z,100974.66
2019-05-11T09:22:30.093Z,100976.30
2019-05-11T09:23:36.555Z,100977.23
2019-05-11T09:24:30.338Z,100979.17
2019-05-11T09:25:32.067Z,100980.86
2019-05-11T09:26:32.530Z,100982.72
2019-05-11T09:27:33.123Z,100984.23
2019-05-11T09:28:33.733Z,100985.77
2019-05-11T09:29:34.450Z,100987.15
2019-05-11T09:30:35.049Z,100988.75
2019-05-11T09:31:38.002Z,100990.53
2019-05-11T09:32:35.648Z,100992.55
2019-05-11T09:33:35.917Z,100994.45
2019-05-11T09:34:37.747Z,100996.06
2019-05-11T09:35:47.682Z,100998.00
2019-05-11T09:36:38.910Z,100999.99
2019-05-11T09:37:38.258Z,101002.02
2019-05-11T09:38:38.503Z,101003.92
2019-05-11T09:39:38.290Z,101005.82
2019-05-11T09:40:38.647Z,101007.81
2019-05-11T09:41:38.649Z,101009.38
2019-05-11T09:43:40.139Z,101013.18
2019-05-11T09:44:40.823Z,101015.00
2019-05-11T09:45:48.192Z,101017.41
2019-05-11T09:46:41.545Z,101019.22
2019-05-11T09:47:43.423Z,101021.04
2019-05-11T09:48:43.093Z,101022.69
2019-05-11T09:49:47.812Z,101024.67
2019-05-11T09:50:43.491Z,101026.97
2019-05-11T09:51:44.157Z,101028.92
2019-05-11T09:52:44.211Z,101030.48
2019-05-11T09:53:48.029Z,101033.11
2019-05-11T09:54:45.165Z,101035.26
2019-05-11T09:55:48.123Z,101037.21
2019-05-11T09:56:48.462Z,101040.09
2019-05-11T09:57:48.725Z,101042.33
2019-05-11T09:58:48.265Z,101045.12
2019-05-11T09:59:49.362Z,101047.19
2019-05-11T10:00:49.430Z,101049.73
2019-05-11T10:01:51.426Z,101052.19
2019-05-11T10:02:51.033Z,101054.81
2019-05-11T10:03:51.579Z,101056.80
2019-05-11T10:04:53.253Z,101058.75
2019-05-11T10:05:53.856Z,101060.86
2019-05-11T10:06:02.930Z,101093.56
2019-05-11T10:07:04.482Z,101093.14
2019-05-11T10:08:07.722Z,101093.89
2019-05-11T10:09:04.753Z,101093.81
2019-05-11T10:10:05.279Z,101094.20
2019-05-11T10:11:08.171Z,101095.00
2019-05-11T10:12:08.170Z,101095.30
2019-05-11T10:13:08.110Z,101095.88
2019-05-11T10:14:08.348Z,101096.19
2019-05-11T10:15:08.436Z,101096.86
2019-05-11T10:16:10.358Z,101097.03
2019-05-11T10:17:07.967Z,101097.54
2019-05-11T10:18:08.343Z,101097.96
2019-05-11T10:19:08.612Z,101098.77
2019-05-11T10:20:09.466Z,101099.27
2019-05-11T10:21:09.553Z,101100.12
2019-05-11T10:22:10.005Z,101100.92
2019-05-11T10:23:10.368Z,101101.59
2019-05-11T10:24:10.418Z,101102.83
2019-05-11T10:25:12.008Z,101103.33
2019-05-11T10:26:12.805Z,101104.85
2019-05-11T10:27:13.724Z,101106.05
2019-05-11T10:28:12.828Z,101107.34
2019-05-11T10:29:12.956Z,101108.83
2019-05-11T10:30:14.549Z,101110.38
2019-05-11T10:31:15.184Z,101111.70
2019-05-11T10:32:18.134Z,101113.09
2019-05-11T10:33:15.472Z,101114.91
2019-05-11T10:34:17.912Z,101116.80
2019-05-11T10:35:18.422Z,101118.45
2019-05-11T10:36:18.840Z,101119.93
2019-05-11T10:37:18.114Z,101121.86
2019-05-11T10:38:19.935Z,101123.59
2019-05-11T10:39:20.502Z,101125.83
2019-05-11T10:40:21.145Z,101127.73
2019-05-11T10:41:21.770Z,101129.21
2019-05-11T10:42:22.420Z,101130.86
2019-05-11T10:43:23.046Z,101133.47
2019-05-11T10:44:23.668Z,101135.45
2019-05-11T10:45:24.336Z,101137.18
2019-05-11T10:46:25.035Z,101138.83
2019-05-11T10:47:27.831Z,101140.81
2019-05-11T10:48:25.267Z,101142.63
2019-05-11T10:49:28.904Z,101143.84
2019-05-11T10:50:28.593Z,101144.98
2019-05-11T10:51:28.799Z,101146.80
2019-05-11T10:52:28.543Z,101148.53
2019-05-11T10:53:28.458Z,101149.41
2019-05-11T10:54:30.156Z,101150.88
2019-05-11T10:55:30.815Z,101152.14
2019-05-11T10:56:31.466Z,101153.79
2019-05-11T10:57:32.152Z,101154.80
2019-05-11T10:58:32.766Z,101156.78
2019-05-11T10:59:33.335Z,101158.63
2019-05-11T11:00:33.920Z,101160.36
2019-05-11T11:01:34.568Z,101161.78
2019-05-11T11:02:35.219Z,101163.38
2019-05-11T11:03:37.787Z,101165.63
2019-05-11T11:04:35.394Z,101167.59
2019-05-11T11:05:38.448Z,101169.23
2019-05-11T11:06:38.639Z,101171.00
2019-05-11T11:07:38.379Z,101172.59
2019-05-11T11:08:38.431Z,101173.82
2019-05-11T11:09:38.667Z,101175.33
2019-05-11T11:10:39.259Z,101177.23
2019-05-11T11:11:40.976Z,101178.73
2019-05-11T11:12:41.949Z,101180.16
2019-05-11T11:13:42.595Z,101181.92
2019-05-11T11:14:43.393Z,101183.44
2019-05-11T11:15:44.046Z,101184.98
2019-05-11T11:15:53.122Z,101221.31
2019-05-11T11:16:54.195Z,101220.56
2019-05-11T11:17:54.909Z,101220.64
2019-05-11T11:18:55.606Z,101221.06
2019-05-11T11:19:57.904Z,101221.41
2019-05-11T11:20:55.399Z,101221.16
2019-05-11T11:22:07.853Z,101221.78